createdAt,value
2023-04-30T00:00:16.127Z,95276.59
2023-04-30T00:02:43.918Z,95273.16
2023-04-30T00:05:11.766Z,95279.22
2023-04-30T00:07:42.137Z,95278.38
2023-04-30T00:10:11.965Z,95283.59
2023-04-30T00:12:40.110Z,95280.16
2023-04-30T00:15:08.613Z,95290.47
2023-04-30T00:17:36.369Z,95288.84
2023-04-30T00:20:04.196Z,95296.50
2023-04-30T00:22:33.314Z,95290.47
2023-04-30T00:25:00.964Z,95297.34
2023-04-30T00:27:31.489Z,95304.34
2023-04-30T00:29:59.092Z,95301.75
2023-04-30T00:32:26.783Z,95304.34
2023-04-30T00:34:54.471Z,95306.13
2023-04-30T00:37:22.078Z,95300.78
2023-04-30T00:39:49.714Z,95299.13
2023-04-30T00:42:17.368Z,95297.34
2023-04-30T00:44:46.312Z,95299.13
2023-04-30T00:47:13.946Z,95306.13
2023-04-30T00:49:41.711Z,95299.13
2023-04-30T00:52:09.426Z,95297.50
2023-04-30T00:54:37.297Z,95297.50
2023-04-30T00:57:06.856Z,95298.31
2023-04-30T00:59:34.542Z,95297.63
2023-04-30T01:02:04.215Z,95301.91
2023-04-30T01:04:33.099Z,95301.06
2023-04-30T01:07:02.134Z,95302.72
2023-04-30T01:09:30.151Z,95305.34
2023-04-30T01:12:07.991Z,95309.75
2023-04-30T01:14:46.421Z,95308.91
2023-04-30T01:17:22.491Z,95317.56
2023-04-30T01:19:50.656Z,95313.31
2023-04-30T01:22:32.849Z,95319.38
2023-04-30T01:25:08.661Z,95323.75
2023-04-30T01:28:02.776Z,95322.13
2023-04-30T01:30:32.231Z,95322.94
2023-04-30T01:33:00.267Z,95310.84
2023-04-30T01:35:43.549Z,95318.53
2023-04-30T01:38:23.067Z,95319.53
2023-04-30T01:40:58.509Z,95321.16
2023-04-30T01:43:40.454Z,95311.69
2023-04-30T01:46:17.972Z,95316.91
2023-04-30T01:48:55.990Z,95320.31
2023-04-30T01:51:32.015Z,95323.75
2023-04-30T01:54:05.098Z,95316.75
2023-04-30T01:56:35.856Z,95320.31
2023-04-30T01:59:06.047Z,95321.03
2023-04-30T02:01:35.357Z,95317.56
2023-04-30T02:04:03.825Z,95316.75
2023-04-30T02:06:31.767Z,95316.75
2023-04-30T02:09:03.260Z,95320.19
2023-04-30T02:11:31.196Z,95309.88
2023-04-30T02:13:58.853Z,95317.56
2023-04-30T02:16:27.941Z,95314.97
2023-04-30T02:18:55.618Z,95320.19
2023-04-30T02:21:23.214Z,95329.66
2023-04-30T02:23:50.879Z,95330.66
2023-04-30T02:26:18.460Z,95325.41
2023-04-30T02:28:46.070Z,95328.16
2023-04-30T02:31:13.792Z,95323.75
2023-04-30T02:33:42.776Z,95329.81
2023-04-30T02:36:10.476Z,95331.59
2023-04-30T02:38:38.121Z,95319.53
2023-04-30T02:41:05.809Z,95329.81
2023-04-30T02:43:33.454Z,95332.59
2023-04-30T02:46:01.148Z,95339.44
2023-04-30T02:48:28.814Z,95342.06
2023-04-30T02:50:57.775Z,95336.97
2023-04-30T02:53:25.418Z,95343.84
2023-04-30T02:55:52.984Z,95347.44
2023-04-30T02:58:20.843Z,95345.78
2023-04-30T03:00:48.451Z,95342.22
2023-04-30T03:03:16.225Z,95341.38
2023-04-30T03:05:43.988Z,95329.16
2023-04-30T03:08:13.124Z,95333.53
2023-04-30T03:10:40.963Z,95336.16
2023-04-30T03:13:08.565Z,95342.22
2023-04-30T03:15:36.198Z,95340.56
2023-04-30T03:18:03.980Z,95338.75
2023-04-30T03:20:31.623Z,95334.53
2023-04-30T03:22:59.212Z,95334.38
2023-04-30T03:25:28.169Z,95329.97
2023-04-30T03:27:55.797Z,95326.53
2023-04-30T03:30:23.438Z,95318.69
2023-04-30T03:32:51.123Z,95322.13
2023-04-30T03:35:19.168Z,95319.53
2023-04-30T03:37:46.859Z,95310.84
2023-04-30T03:40:14.666Z,95316.91
2023-04-30T03:42:43.645Z,95317.72
2023-04-30T03:45:12.012Z,95311.69
2023-04-30T03:47:39.784Z,95313.47
2023-04-30T03:50:08.878Z,95316.91
2023-04-30T03:52:37.151Z,95309.88
2023-04-30T03:55:05.158Z,95313.31
2023-04-30T03:57:33.292Z,95312.47
2023-04-30T04:00:02.604Z,95311.69
2023-04-30T04:02:32.825Z,95314.28
2023-04-30T04:05:00.701Z,95317.72
2023-04-30T04:07:28.301Z,95306.47
2023-04-30T04:09:56.179Z,95310.84
2023-04-30T04:12:24.022Z,95322.94
2023-04-30T04:14:51.636Z,95320.47
2023-04-30T04:17:20.562Z,95322.94
2023-04-30T04:19:48.195Z,95322.94
2023-04-30T04:22:15.802Z,95322.94
2023-04-30T04:24:43.374Z,95325.53
2023-04-30T04:27:11.469Z,95337.66
2023-04-30T04:29:39.332Z,95338.59
2023-04-30T04:32:07.162Z,95342.06
2023-04-30T04:34:36.363Z,95336.00
2023-04-30T04:37:03.990Z,95349.88
2023-04-30T04:39:31.586Z,95346.44
2023-04-30T04:41:59.274Z,95347.28
2023-04-30T04:44:27.184Z,95349.88
2023-04-30T04:46:56.770Z,95349.88
2023-04-30T04:49:24.552Z,95347.28
2023-04-30T04:51:53.528Z,95350.72
2023-04-30T04:54:21.281Z,95349.06
2023-04-30T04:56:48.982Z,95352.50
2023-04-30T04:59:18.887Z,95345.50
2023-04-30T05:01:46.590Z,95354.16
2023-04-30T05:04:14.251Z,95355.94
2023-04-30T05:06:42.560Z,95357.59
2023-04-30T05:09:11.596Z,95357.59
2023-04-30T05:11:41.390Z,95362.00
2023-04-30T05:14:09.066Z,95361.00
2023-04-30T05:16:36.812Z,95363.63
2023-04-30T05:19:04.447Z,95359.38
2023-04-30T05:21:32.120Z,95358.56
2023-04-30T05:23:59.708Z,95365.44
2023-04-30T05:26:28.728Z,95367.06
2023-04-30T05:28:56.374Z,95364.47
2023-04-30T05:31:24.066Z,95372.28
2023-04-30T05:33:51.660Z,95372.28
2023-04-30T05:36:19.283Z,95365.44
2023-04-30T05:38:46.870Z,95367.91
2023-04-30T05:41:14.444Z,95372.28
2023-04-30T05:43:43.424Z,95364.47
2023-04-30T05:46:11.072Z,95373.13
2023-04-30T05:48:39.173Z,95362.66
2023-04-30T05:51:07.325Z,95362.50
2023-04-30T05:53:35.264Z,95357.44
2023-04-30T05:56:02.945Z,95360.88
2023-04-30T05:58:30.589Z,95360.06
2023-04-30T06:00:59.912Z,95360.88
2023-04-30T06:03:27.478Z,95360.88
2023-04-30T06:05:55.515Z,95361.84
2023-04-30T06:08:23.509Z,95360.88
2023-04-30T06:10:52.151Z,95367.91
2023-04-30T06:13:19.842Z,95358.28
2023-04-30T06:15:47.574Z,95360.88
2023-04-30T06:18:16.586Z,95359.06
2023-04-30T06:20:44.200Z,95355.50
2023-04-30T06:23:12.009Z,95363.34
2023-04-30T06:25:40.231Z,95353.84
2023-04-30T06:28:09.263Z,95358.13
2023-04-30T06:30:38.052Z,95359.91
2023-04-30T06:33:05.745Z,95358.13
2023-04-30T06:35:34.916Z,95352.88
2023-04-30T06:38:02.657Z,95361.56
2023-04-30T06:40:30.345Z,95352.88
2023-04-30T06:42:57.972Z,95351.09
2023-04-30T06:45:25.662Z,95351.94
2023-04-30T06:47:53.461Z,95352.72
2023-04-30T06:50:21.856Z,95353.72
2023-04-30T06:52:50.841Z,95355.34
2023-04-30T06:55:18.472Z,95356.19
2023-04-30T06:57:46.098Z,95355.34
2023-04-30T07:00:15.280Z,95356.19
2023-04-30T07:02:43.736Z,95350.94
2023-04-30T07:05:12.254Z,95354.41
2023-04-30T07:07:39.859Z,95357.00
2023-04-30T07:10:09.820Z,95357.00
2023-04-30T07:12:37.506Z,95358.78
2023-04-30T07:15:05.688Z,95351.78
2023-04-30T07:17:33.347Z,95356.19
2023-04-30T07:20:01.003Z,95357.00
2023-04-30T07:22:28.791Z,95362.22
2023-04-30T07:24:56.522Z,95357.69
2023-04-30T07:27:25.459Z,95361.13
2023-04-30T07:29:53.428Z,95356.47
2023-04-30T07:32:21.450Z,95351.69
2023-04-30T07:34:49.088Z,95360.78
2023-04-30T07:37:17.058Z,95356.66
2023-04-30T07:39:44.666Z,95355.19
2023-04-30T07:42:12.349Z,95355.19
2023-04-30T07:44:41.950Z,95355.31
2023-04-30T07:47:09.999Z,95347.63
2023-04-30T07:49:37.685Z,95345.97
2023-04-30T07:52:06.240Z,95343.38
2023-04-30T07:54:36.488Z,95352.19
2023-04-30T07:57:04.544Z,95341.91
2023-04-30T07:59:32.198Z,95338.44
2023-04-30T08:02:01.908Z,95342.03
2023-04-30T08:04:29.630Z,95347.91
2023-04-30T08:06:57.281Z,95348.91
2023-04-30T08:09:25.066Z,95346.41
2023-04-30T08:11:53.079Z,95346.41
2023-04-30T08:14:21.710Z,95349.03
2023-04-30T08:16:49.444Z,95349.84
2023-04-30T08:19:18.609Z,95343.00
2023-04-30T08:21:46.278Z,95341.19
2023-04-30T08:24:13.945Z,95345.75
2023-04-30T08:26:41.762Z,95347.41
2023-04-30T08:29:09.459Z,95343.81
2023-04-30T08:31:37.308Z,95340.25
2023-04-30T08:34:04.977Z,95341.91
2023-04-30T08:36:33.966Z,95343.69
2023-04-30T08:39:02.154Z,95336.13
2023-04-30T08:41:34.885Z,95338.22
2023-04-30T08:44:04.668Z,95347.69
2023-04-30T08:46:35.458Z,95351.28
2023-04-30T08:49:03.246Z,95340.84
2023-04-30T08:51:33.797Z,95333.00
2023-04-30T08:54:02.808Z,95338.06
2023-04-30T08:56:31.405Z,95346.88
2023-04-30T08:58:59.019Z,95348.22
2023-04-30T09:01:28.081Z,95346.72
2023-04-30T09:03:55.820Z,95351.13
2023-04-30T09:06:23.697Z,95352.91
2023-04-30T09:08:52.636Z,95352.91
2023-04-30T09:11:32.004Z,95350.28
2023-04-30T09:14:01.556Z,95351.94
2023-04-30T09:16:32.980Z,95350.28
2023-04-30T09:19:00.965Z,95354.56
2023-04-30T09:21:36.311Z,95349.84
2023-04-30T09:24:05.500Z,95349.03
2023-04-30T09:26:38.262Z,95345.63
2023-04-30T09:29:08.701Z,95360.63
2023-04-30T09:31:37.406Z,95354.41
2023-04-30T09:34:06.117Z,95345.75
2023-04-30T09:36:34.313Z,95361.28
2023-04-30T09:39:10.827Z,95350.16
2023-04-30T09:41:41.189Z,95354.41
2023-04-30T09:44:08.856Z,95361.41
2023-04-30T09:46:38.397Z,95352.09
2023-04-30T09:49:07.163Z,95359.94
2023-04-30T09:51:35.667Z,95361.56
2023-04-30T09:54:04.279Z,95358.69
2023-04-30T09:56:36.991Z,95351.63
2023-04-30T09:59:09.109Z,95349.19
2023-04-30T10:01:40.398Z,95356.19
2023-04-30T10:04:08.777Z,95351.19
2023-04-30T10:06:37.164Z,95353.06
2023-04-30T10:09:07.695Z,95350.91
2023-04-30T10:11:38.657Z,95352.97
2023-04-30T10:14:12.874Z,95355.34
2023-04-30T10:16:45.321Z,95350.72
2023-04-30T10:19:16.227Z,95349.38
2023-04-30T10:21:46.831Z,95345.41
2023-04-30T10:24:15.785Z,95335.41
2023-04-30T10:26:44.509Z,95343.38
2023-04-30T10:29:14.535Z,95334.84
2023-04-30T10:31:44.266Z,95329.63
2023-04-30T10:34:20.967Z,95332.25
2023-04-30T10:36:51.394Z,95325.41
2023-04-30T10:39:20.130Z,95327.03
2023-04-30T10:41:49.048Z,95323.59
2023-04-30T10:44:24.144Z,95313.16
2023-04-30T10:46:59.954Z,95324.41
2023-04-30T10:49:28.018Z,95309.72
2023-04-30T10:51:58.376Z,95309.84
2023-04-30T10:54:28.695Z,95301.34
2023-04-30T10:57:10.989Z,95309.16
2023-04-30T10:59:43.604Z,95297.94
2023-04-30T11:02:12.007Z,95304.50
2023-04-30T11:05:10.509Z,95297.16
2023-04-30T11:07:38.886Z,95301.44
2023-04-30T11:10:09.396Z,95297.84
2023-04-30T11:12:42.352Z,95296.88
2023-04-30T11:15:17.879Z,95303.91
2023-04-30T11:17:46.418Z,95294.44
2023-04-30T11:20:14.841Z,95294.44
2023-04-30T11:22:42.507Z,95288.22
2023-04-30T11:25:11.360Z,95291.50
2023-04-30T11:27:42.091Z,95295.78
2023-04-30T11:30:15.640Z,95289.56
2023-04-30T11:32:46.249Z,95288.44
2023-04-30T11:35:15.336Z,95292.72
2023-04-30T11:37:44.484Z,95283.59
2023-04-30T11:40:14.326Z,95291.28
2023-04-30T11:42:46.500Z,95288.69
2023-04-30T11:45:20.592Z,95291.28
2023-04-30T11:47:49.830Z,95291.13
2023-04-30T11:50:19.841Z,95287.13
2023-04-30T11:52:50.844Z,95296.06
2023-04-30T11:55:20.754Z,95285.91
2023-04-30T11:57:50.120Z,95274.00
2023-04-30T12:00:20.844Z,95271.66
2023-04-30T12:02:50.116Z,95281.13
2023-04-30T12:05:20.050Z,95277.84
2023-04-30T12:07:49.042Z,95269.03
2023-04-30T12:10:17.039Z,95273.59
2023-04-30T12:12:45.841Z,95274.72
2023-04-30T12:15:17.835Z,95278.81
2023-04-30T12:17:47.760Z,95276.06
2023-04-30T12:20:16.493Z,95279.22
2023-04-30T12:22:45.689Z,95274.06
2023-04-30T12:25:14.809Z,95283.53
2023-04-30T12:27:43.099Z,95275.00
2023-04-30T12:30:11.000Z,95272.41
2023-04-30T12:32:42.240Z,95268.16
2023-04-30T12:35:15.525Z,95271.59
2023-04-30T12:37:44.155Z,95267.84
2023-04-30T12:40:12.418Z,95271.44
2023-04-30T12:42:39.898Z,95261.94
2023-04-30T12:45:08.184Z,95244.63
2023-04-30T12:47:40.254Z,95256.72
2023-04-30T12:50:09.548Z,95255.09
2023-04-30T12:52:38.474Z,95258.66
2023-04-30T12:55:21.065Z,95249.03
2023-04-30T12:58:04.745Z,95238.59
2023-04-30T13:00:43.705Z,95249.03
2023-04-30T13:03:11.304Z,95235.00
2023-04-30T13:05:38.845Z,95237.63
2023-04-30T13:08:07.984Z,95234.03
2023-04-30T13:10:35.473Z,95227.97
2023-04-30T13:13:02.924Z,95222.75
2023-04-30T13:15:30.492Z,95226.03
2023-04-30T13:17:58.074Z,95226.03
2023-04-30T13:20:26.468Z,95225.22
2023-04-30T13:22:54.059Z,95218.19
2023-04-30T13:25:23.259Z,95212.16
2023-04-30T13:27:50.944Z,95214.78
2023-04-30T13:30:18.489Z,95202.50
2023-04-30T13:32:46.472Z,95201.72
2023-04-30T13:35:14.062Z,95197.28
2023-04-30T13:37:42.224Z,95203.50
2023-04-30T13:40:10.146Z,95196.47
2023-04-30T13:42:39.318Z,95195.66
2023-04-30T13:45:07.450Z,95190.25
2023-04-30T13:47:35.633Z,95187.81
2023-04-30T13:50:03.262Z,95193.03
2023-04-30T13:52:30.749Z,95193.03
2023-04-30T13:54:58.211Z,95187.00
2023-04-30T13:57:25.665Z,95183.53
2023-04-30T13:59:55.192Z,95188.78
2023-04-30T14:02:22.834Z,95185.38
2023-04-30T14:05:04.512Z,95180.94
2023-04-30T14:07:33.182Z,95178.31
2023-04-30T14:10:00.638Z,95181.91
2023-04-30T14:12:30.446Z,95181.91
2023-04-30T14:14:59.681Z,95168.84
2023-04-30T14:17:28.255Z,95176.69
2023-04-30T14:19:56.073Z,95170.47
2023-04-30T14:22:24.444Z,95172.28
2023-04-30T14:24:53.228Z,95166.25
2023-04-30T14:27:21.163Z,95164.47
2023-04-30T14:29:48.608Z,95158.41
2023-04-30T14:32:17.607Z,95163.63
2023-04-30T14:34:45.076Z,95161.84
2023-04-30T14:37:12.535Z,95162.63
2023-04-30T14:39:39.971Z,95163.47
2023-04-30T14:42:07.457Z,95154.78
2023-04-30T14:44:35.275Z,95153.84
2023-04-30T14:47:04.134Z,95162.63
2023-04-30T14:49:32.950Z,95156.47
2023-04-30T14:52:00.605Z,95159.06
2023-04-30T14:54:28.069Z,95155.63
2023-04-30T14:56:55.556Z,95153.84
2023-04-30T14:59:23.001Z,95164.28
2023-04-30T15:01:50.644Z,95158.25
2023-04-30T15:04:18.279Z,95165.13
2023-04-30T15:06:48.110Z,95160.03
2023-04-30T15:09:15.658Z,95166.91
2023-04-30T15:11:43.162Z,95153.00
2023-04-30T15:14:10.568Z,95151.22
2023-04-30T15:16:38.041Z,95140.09
2023-04-30T15:19:05.562Z,95146.16
2023-04-30T15:21:32.969Z,95147.94
2023-04-30T15:24:01.783Z,95153.19
2023-04-30T15:26:29.529Z,95153.19
2023-04-30T15:28:57.278Z,95143.56
2023-04-30T15:31:25.231Z,95146.16
2023-04-30T15:33:52.709Z,95134.88
2023-04-30T15:36:22.292Z,95151.38
2023-04-30T15:38:49.774Z,95143.56
2023-04-30T15:41:18.877Z,95150.56
2023-04-30T15:43:46.288Z,95143.69
2023-04-30T15:46:14.190Z,95142.72
2023-04-30T15:48:41.656Z,95138.47
2023-04-30T15:51:09.055Z,95135.84
2023-04-30T15:53:36.511Z,95141.91
2023-04-30T15:56:04.470Z,95135.84
2023-04-30T15:58:33.321Z,95135.03
2023-04-30T16:01:01.300Z,95126.22
2023-04-30T16:03:28.860Z,95138.47
2023-04-30T16:05:56.637Z,95130.63
2023-04-30T16:08:24.170Z,95132.28
2023-04-30T16:10:51.762Z,95126.22
2023-04-30T16:13:19.214Z,95129.66
2023-04-30T16:15:48.383Z,95127.03
2023-04-30T16:18:15.857Z,95121.81
2023-04-30T16:20:43.793Z,95126.06
2023-04-30T16:23:11.337Z,95128.66
2023-04-30T16:25:38.816Z,95126.06
2023-04-30T16:28:06.270Z,95127.88
2023-04-30T16:30:33.775Z,95122.66
2023-04-30T16:33:03.009Z,95119.22
2023-04-30T16:35:30.488Z,95115.59
2023-04-30T16:37:57.913Z,95121.66
2023-04-30T16:40:25.407Z,95117.41
2023-04-30T16:42:52.847Z,95126.88
2023-04-30T16:45:20.265Z,95123.44
2023-04-30T16:47:48.475Z,95120.03
2023-04-30T16:50:17.402Z,95125.25
2023-04-30T16:52:45.027Z,95117.41
2023-04-30T16:55:12.468Z,95116.59
2023-04-30T16:57:39.900Z,95122.66
2023-04-30T17:00:08.718Z,95120.03
2023-04-30T17:02:36.999Z,95128.66
2023-04-30T17:05:04.690Z,95126.06
2023-04-30T17:07:33.525Z,95123.44
2023-04-30T17:10:01.047Z,95119.22
2023-04-30T17:12:28.503Z,95125.09
2023-04-30T17:14:55.933Z,95121.81
2023-04-30T17:17:23.446Z,95118.38
2023-04-30T17:19:50.882Z,95121.81
2023-04-30T17:22:20.162Z,95125.25
2023-04-30T17:24:49.006Z,95121.81
2023-04-30T17:27:16.498Z,95119.22
2023-04-30T17:29:43.987Z,95115.59
2023-04-30T17:32:11.511Z,95120.03
2023-04-30T17:34:39.042Z,95121.81
2023-04-30T17:37:07.130Z,95126.06
2023-04-30T17:39:34.560Z,95123.44
2023-04-30T17:42:03.690Z,95132.28
2023-04-30T17:44:31.568Z,95122.66
2023-04-30T17:46:58.968Z,95115.59
2023-04-30T17:49:26.725Z,95116.59
2023-04-30T17:51:54.228Z,95121.66
2023-04-30T17:54:21.652Z,95114.81
2023-04-30T17:56:49.287Z,95119.03
2023-04-30T17:59:18.053Z,95119.03
2023-04-30T18:01:45.877Z,95118.88
2023-04-30T18:04:16.798Z,95119.72
2023-04-30T18:06:44.424Z,95120.53
2023-04-30T18:09:12.565Z,95129.19
2023-04-30T18:11:40.052Z,95119.56
2023-04-30T18:14:07.524Z,95121.19
2023-04-30T18:16:36.602Z,95121.19
2023-04-30T18:19:04.179Z,95121.19
2023-04-30T18:21:32.143Z,95125.47
2023-04-30T18:23:59.572Z,95122.03
2023-04-30T18:26:27.037Z,95121.19
2023-04-30T18:28:55.508Z,95122.97
2023-04-30T18:31:22.980Z,95125.59
2023-04-30T18:33:51.949Z,95123.81
2023-04-30T18:36:19.430Z,95123.81
2023-04-30T18:38:46.833Z,95126.41
2023-04-30T18:41:14.318Z,95127.25
2023-04-30T18:43:42.761Z,95130.81
2023-04-30T18:46:10.650Z,95137.69
2023-04-30T18:48:38.360Z,95126.41
2023-04-30T18:51:07.148Z,95133.44
2023-04-30T18:53:35.865Z,95131.66
2023-04-30T18:56:03.305Z,95141.28
2023-04-30T18:58:30.736Z,95131.00
2023-04-30T19:00:58.577Z,95135.25
2023-04-30T19:03:26.244Z,95136.06
2023-04-30T19:05:57.785Z,95137.88
2023-04-30T19:08:26.775Z,95137.03
2023-04-30T19:10:55.922Z,95140.47
2023-04-30T19:13:23.853Z,95143.22
2023-04-30T19:15:52.915Z,95138.66
2023-04-30T19:18:21.700Z,95140.47
2023-04-30T19:20:57.176Z,95145.53
2023-04-30T19:23:24.722Z,95149.13
2023-04-30T19:25:53.512Z,95148.31
2023-04-30T19:28:20.969Z,95150.78
2023-04-30T19:30:51.545Z,95151.59
2023-04-30T19:33:19.120Z,95148.16
2023-04-30T19:35:48.658Z,95145.38
2023-04-30T19:38:16.052Z,95141.16
2023-04-30T19:40:46.752Z,95148.00
2023-04-30T19:43:15.557Z,95145.38
2023-04-30T19:45:47.835Z,95144.56
2023-04-30T19:48:15.351Z,95154.06
2023-04-30T19:50:44.838Z,95150.59
2023-04-30T19:53:12.595Z,95150.59
2023-04-30T19:55:40.028Z,95154.88
2023-04-30T19:58:07.790Z,95153.22
2023-04-30T20:00:38.533Z,95142.78
2023-04-30T20:03:06.688Z,95147.16
2023-04-30T20:05:34.957Z,95143.59
2023-04-30T20:08:03.333Z,95147.16
2023-04-30T20:10:30.921Z,95140.16
2023-04-30T20:12:58.444Z,95140.16
2023-04-30T20:15:26.042Z,95144.56
2023-04-30T20:17:54.891Z,95130.69
2023-04-30T20:20:23.832Z,95135.75
2023-04-30T20:22:51.758Z,95136.72
2023-04-30T20:25:19.664Z,95127.09
2023-04-30T20:27:47.116Z,95133.16
2023-04-30T20:30:14.725Z,95133.31
2023-04-30T20:32:42.209Z,95131.50
2023-04-30T20:35:11.217Z,95130.53
2023-04-30T20:37:38.686Z,95119.25
2023-04-30T20:40:08.099Z,95127.09
2023-04-30T20:42:35.695Z,95128.88
2023-04-30T20:45:05.777Z,95120.25
2023-04-30T20:47:33.506Z,95123.66
2023-04-30T20:50:01.018Z,95128.88
2023-04-30T20:52:29.822Z,95120.25
2023-04-30T20:54:59.321Z,95119.25
2023-04-30T20:57:26.869Z,95119.41
2023-04-30T20:59:54.659Z,95112.41
2023-04-30T21:02:22.334Z,95119.25
2023-04-30T21:04:49.842Z,95114.19
2023-04-30T21:07:17.311Z,95102.91
2023-04-30T21:09:46.192Z,95114.84
2023-04-30T21:12:13.639Z,95120.06
2023-04-30T21:14:41.445Z,95113.06
2023-04-30T21:17:09.189Z,95112.22
2023-04-30T21:19:36.852Z,95117.47
2023-04-30T21:22:04.364Z,95107.84
2023-04-30T21:24:31.829Z,95103.41
2023-04-30T21:27:01.058Z,95096.56
2023-04-30T21:29:28.639Z,95100.94
2023-04-30T21:31:56.300Z,95095.72
2023-04-30T21:34:23.771Z,95093.94
2023-04-30T21:36:51.748Z,95097.38
2023-04-30T21:39:19.244Z,95098.19
2023-04-30T21:41:46.728Z,95088.72
2023-04-30T21:44:15.620Z,95100.94
2023-04-30T21:46:43.084Z,95099.16
2023-04-30T21:49:11.844Z,95096.56
2023-04-30T21:51:39.290Z,95093.13
2023-04-30T21:54:06.929Z,95091.31
2023-04-30T21:56:34.471Z,95084.44
2023-04-30T21:59:01.923Z,95086.09
2023-04-30T22:01:30.686Z,95086.94
2023-04-30T22:03:58.696Z,95080.03
2023-04-30T22:06:26.498Z,95080.88
2023-04-30T22:08:54.009Z,95066.16
2023-04-30T22:11:22.176Z,95075.66
2023-04-30T22:13:49.670Z,95065.34
2023-04-30T22:16:17.201Z,95065.34
2023-04-30T22:18:46.270Z,95066.97
2023-04-30T22:21:13.761Z,95059.13
2023-04-30T22:23:41.295Z,95062.75
2023-04-30T22:26:09.968Z,95064.38
2023-04-30T22:28:37.744Z,95059.97
2023-04-30T22:31:05.345Z,95060.94
2023-04-30T22:33:35.434Z,95054.75
2023-04-30T22:36:04.608Z,95050.47
2023-04-30T22:38:32.331Z,95060.78
2023-04-30T22:41:01.189Z,95052.94
2023-04-30T22:43:30.337Z,95046.06
2023-04-30T22:45:58.329Z,95044.28
2023-04-30T22:48:26.865Z,95042.50
2023-04-30T22:50:55.438Z,95042.50
2023-04-30T22:53:24.693Z,95041.66
2023-04-30T22:55:52.916Z,95033.00
2023-04-30T22:58:20.392Z,95033.84
2023-04-30T23:00:47.944Z,95031.22
2023-04-30T23:03:15.579Z,95038.06
2023-04-30T23:05:42.996Z,95027.78
2023-04-30T23:08:10.473Z,95027.78
2023-04-30T23:10:39.238Z,95032.03
2023-04-30T23:13:07.435Z,95031.22
2023-04-30T23:15:34.903Z,95028.59
2023-04-30T23:18:02.455Z,95023.53
2023-04-30T23:20:29.965Z,95029.56
2023-04-30T23:22:57.417Z,95021.72
2023-04-30T23:25:24.924Z,95021.72
2023-04-30T23:27:53.898Z,95026.94
2023-04-30T23:30:22.098Z,95023.38
2023-04-30T23:32:49.724Z,95019.94
2023-04-30T23:35:17.254Z,95019.94
2023-04-30T23:37:44.720Z,95008.66
2023-04-30T23:40:12.521Z,95012.25
2023-04-30T23:42:39.999Z,95017.31
2023-04-30T23:45:09.891Z,95017.50
2023-04-30T23:47:38.330Z,95007.88
2023-04-30T23:50:06.309Z,95007.03
2023-04-30T23:52:34.582Z,95004.41
2023-04-30T23:55:02.468Z,95007.88
2023-04-30T23:57:30.040Z,94998.19
2023-04-30T23:59:58.551Z,95000.03
